createdAt,value
2023-04-03T00:01:01.376Z,100.00
2023-04-03T00:03:28.337Z,100.00
2023-04-03T00:05:55.782Z,100.00
2023-04-03T00:08:22.509Z,100.00
2023-04-03T00:10:49.205Z,100.00
2023-04-03T00:13:17.463Z,100.00
2023-04-03T00:15:44.238Z,100.00
2023-04-03T00:18:10.816Z,100.00
2023-04-03T00:20:37.920Z,100.00
2023-04-03T00:23:04.763Z,100.00
2023-04-03T00:25:31.325Z,100.00
2023-04-03T00:27:57.849Z,100.00
2023-04-03T00:30:24.831Z,100.00
2023-04-03T00:32:53.110Z,100.00
2023-04-03T00:35:21.904Z,100.00
2023-04-03T00:37:48.819Z,100.00
2023-04-03T00:40:16.225Z,100.00
2023-04-03T00:42:44.315Z,100.00
2023-04-03T00:45:13.927Z,100.00
2023-04-03T00:47:42.143Z,100.00
2023-04-03T00:50:09.276Z,100.00
2023-04-03T00:52:37.451Z,100.00
2023-04-03T00:55:08.598Z,100.00
2023-04-03T00:57:35.995Z,100.00
2023-04-03T01:00:09.960Z,100.00
2023-04-03T01:02:37.452Z,100.00
2023-04-03T01:05:06.108Z,100.00
2023-04-03T01:07:34.919Z,100.00
2023-04-03T01:10:22.585Z,100.00
2023-04-03T01:13:24.192Z,100.00
2023-04-03T01:16:11.360Z,100.00
2023-04-03T01:18:59.757Z,100.00
2023-04-03T01:22:11.905Z,100.00
2023-04-03T01:24:59.023Z,100.00
2023-04-03T01:27:27.056Z,100.00
2023-04-03T01:29:53.969Z,100.00
2023-04-03T01:32:20.669Z,100.00
2023-04-03T01:34:47.147Z,100.00
2023-04-03T01:37:13.631Z,100.00
2023-04-03T01:39:40.318Z,100.00
2023-04-03T01:42:07.497Z,100.00
2023-04-03T01:44:38.694Z,100.00
2023-04-03T01:47:08.184Z,100.00
2023-04-03T01:49:35.270Z,100.00
2023-04-03T01:52:01.880Z,100.00
2023-04-03T01:54:28.637Z,100.00
2023-04-03T01:56:55.165Z,100.00
2023-04-03T01:59:22.351Z,100.00
2023-04-03T02:01:48.996Z,100.00
2023-04-03T02:04:15.619Z,100.00
2023-04-03T02:06:42.302Z,100.00
2023-04-03T02:09:08.737Z,100.00
2023-04-03T02:11:35.350Z,100.00
2023-04-03T02:14:02.769Z,100.00
2023-04-03T02:16:29.749Z,100.00
2023-04-03T02:18:56.542Z,100.00
2023-04-03T02:21:23.531Z,100.00
2023-04-03T02:23:50.649Z,100.00
2023-04-03T02:26:19.120Z,100.00
2023-04-03T02:28:46.137Z,100.00
2023-04-03T02:31:13.230Z,100.00
2023-04-03T02:33:42.006Z,100.00
2023-04-03T02:36:10.990Z,100.00
2023-04-03T02:38:39.738Z,100.00
2023-04-03T02:41:09.354Z,100.00
2023-04-03T02:43:36.229Z,100.00
2023-04-03T02:46:04.187Z,100.00
2023-04-03T02:48:33.371Z,100.00
2023-04-03T02:50:59.937Z,100.00
2023-04-03T02:53:26.544Z,100.00
2023-04-03T02:55:53.213Z,100.00
2023-04-03T02:58:19.942Z,100.00
2023-04-03T03:00:46.515Z,100.00
2023-04-03T03:03:15.135Z,100.00
2023-04-03T03:05:41.636Z,100.00
2023-04-03T03:08:08.444Z,100.00
2023-04-03T03:10:35.623Z,100.00
2023-04-03T03:13:02.588Z,100.00
2023-04-03T03:15:30.361Z,100.00
2023-04-03T03:17:56.886Z,100.00
2023-04-03T03:20:23.494Z,100.00
2023-04-03T03:22:50.613Z,100.00
2023-04-03T03:25:17.086Z,100.00
2023-04-03T03:27:43.854Z,100.00
2023-04-03T03:30:11.227Z,100.00
2023-04-03T03:32:38.007Z,100.00
2023-04-03T03:35:05.004Z,100.00
2023-04-03T03:37:31.471Z,100.00
2023-04-03T03:39:58.446Z,100.00
2023-04-03T03:42:24.941Z,100.00
2023-04-03T03:44:52.878Z,100.00
2023-04-03T03:47:20.168Z,100.00
2023-04-03T03:49:47.158Z,100.00
2023-04-03T03:52:14.630Z,100.00
2023-04-03T03:54:41.296Z,100.00
2023-04-03T03:57:08.041Z,100.00
2023-04-03T03:59:34.596Z,100.00
2023-04-03T04:02:01.266Z,100.00
2023-04-03T04:04:27.800Z,100.00
2023-04-03T04:06:55.525Z,100.00
2023-04-03T04:09:22.606Z,100.00
2023-04-03T04:11:49.175Z,100.00
2023-04-03T04:14:17.369Z,100.00
2023-04-03T04:16:44.450Z,100.00
2023-04-03T04:19:16.306Z,100.00
2023-04-03T04:21:44.646Z,100.00
2023-04-03T04:24:11.286Z,100.00
2023-04-03T04:26:38.776Z,100.00
2023-04-03T04:29:06.567Z,100.00
2023-04-03T04:31:35.664Z,100.00
2023-04-03T04:34:02.387Z,100.00
2023-04-03T04:36:29.460Z,100.00
2023-04-03T04:38:56.662Z,100.00
2023-04-03T04:41:25.644Z,100.00
2023-04-03T04:43:52.891Z,100.00
2023-04-03T04:46:19.971Z,100.00
2023-04-03T04:48:51.575Z,100.00
2023-04-03T04:51:20.556Z,100.00
2023-04-03T04:53:47.148Z,100.00
2023-04-03T04:56:16.127Z,100.00
2023-04-03T04:58:43.373Z,100.00
2023-04-03T05:01:12.092Z,100.00
2023-04-03T05:03:48.776Z,100.00
2023-04-03T05:06:16.475Z,100.00
2023-04-03T05:08:43.034Z,100.00
2023-04-03T05:11:09.674Z,100.00
2023-04-03T05:13:36.469Z,100.00
2023-04-03T05:16:03.133Z,100.00
2023-04-03T05:18:29.702Z,100.00
2023-04-03T05:20:59.765Z,100.00
2023-04-03T05:23:27.032Z,100.00
2023-04-03T05:25:54.521Z,100.00
2023-04-03T05:28:22.465Z,100.00
2023-04-03T05:30:57.335Z,100.00
2023-04-03T05:33:27.208Z,100.00
2023-04-03T05:35:56.162Z,100.00
2023-04-03T05:38:27.106Z,100.00
2023-04-03T05:40:55.214Z,100.00
2023-04-03T05:43:21.741Z,100.00
2023-04-03T05:45:49.607Z,100.00
2023-04-03T05:48:16.658Z,100.00
2023-04-03T05:50:44.507Z,100.00
2023-04-03T05:53:19.935Z,100.00
2023-04-03T05:55:46.747Z,100.00
2023-04-03T05:58:13.712Z,100.00
2023-04-03T06:00:40.998Z,100.00
2023-04-03T06:03:08.099Z,100.00
2023-04-03T06:05:34.812Z,100.00
2023-04-03T06:08:01.625Z,100.00
2023-04-03T06:10:28.309Z,100.00
2023-04-03T06:12:54.912Z,100.00
2023-04-03T06:15:22.020Z,100.00
2023-04-03T06:17:48.725Z,100.00
2023-04-03T06:20:15.342Z,100.00
2023-04-03T06:22:42.813Z,100.00
2023-04-03T06:25:11.818Z,100.00
2023-04-03T06:27:39.153Z,100.00
2023-04-03T06:30:07.371Z,100.00
2023-04-03T06:32:33.832Z,100.00
2023-04-03T06:35:01.081Z,100.00
2023-04-03T06:37:29.015Z,100.00
2023-04-03T06:39:55.931Z,100.00
2023-04-03T06:42:22.781Z,100.00
2023-04-03T06:44:58.310Z,100.00
2023-04-03T06:47:24.829Z,100.00
2023-04-03T06:49:51.705Z,100.00
2023-04-03T06:52:18.137Z,100.00
2023-04-03T06:54:44.744Z,100.00
2023-04-03T06:57:11.231Z,100.00
2023-04-03T06:59:37.971Z,100.00
2023-04-03T07:02:05.248Z,100.00
2023-04-03T07:04:32.041Z,100.00
2023-04-03T07:06:58.494Z,100.00
2023-04-03T07:09:25.591Z,100.00
2023-04-03T07:11:52.137Z,100.00
2023-04-03T07:14:18.673Z,100.00
2023-04-03T07:16:45.449Z,100.00
2023-04-03T07:19:11.892Z,100.00
2023-04-03T07:21:38.649Z,100.00
2023-04-03T07:24:05.745Z,100.00
2023-04-03T07:26:32.453Z,100.00
2023-04-03T07:28:59.318Z,100.00
2023-04-03T07:31:26.258Z,100.00
2023-04-03T07:33:53.305Z,100.00
2023-04-03T07:36:22.832Z,100.00
2023-04-03T07:38:49.665Z,100.00
2023-04-03T07:41:18.695Z,100.00
2023-04-03T07:43:46.275Z,100.00
2023-04-03T07:46:13.779Z,100.00
2023-04-03T07:48:40.277Z,95.52
2023-04-03T07:51:06.691Z,93.14
2023-04-03T07:53:33.971Z,89.02
2023-04-03T07:56:00.921Z,88.31
2023-04-03T07:58:27.812Z,85.04
2023-04-03T08:00:54.451Z,82.82
2023-04-03T08:03:21.472Z,80.40
2023-04-03T08:05:49.978Z,78.22
2023-04-03T08:08:21.259Z,77.25
2023-04-03T08:10:52.676Z,72.82
2023-04-03T08:13:20.309Z,71.44
2023-04-03T08:15:47.474Z,69.79
2023-04-03T08:18:15.714Z,69.06
2023-04-03T08:20:42.746Z,67.60
2023-04-03T08:23:09.651Z,66.25
2023-04-03T08:25:40.876Z,64.17
2023-04-03T08:28:08.376Z,64.73
2023-04-03T08:30:35.740Z,63.12
2023-04-03T08:33:03.427Z,63.51
2023-04-03T08:35:30.421Z,60.59
2023-04-03T08:37:57.513Z,62.00
2023-04-03T08:40:24.438Z,60.66
2023-04-03T08:43:07.397Z,57.84
2023-04-03T08:45:46.369Z,58.38
2023-04-03T08:48:32.142Z,57.09
2023-04-03T08:51:03.702Z,54.97
2023-04-03T08:53:34.631Z,54.63
2023-04-03T08:56:05.956Z,54.74
2023-04-03T08:58:53.798Z,54.52
2023-04-03T09:01:34.447Z,53.44
2023-04-03T09:04:03.089Z,52.78
2023-04-03T09:06:33.970Z,50.96
2023-04-03T09:09:15.989Z,50.78
2023-04-03T09:11:54.428Z,49.40
2023-04-03T09:14:32.920Z,49.55
2023-04-03T09:17:04.113Z,49.13
2023-04-03T09:19:47.910Z,50.12
2023-04-03T09:22:30.113Z,50.40
2023-04-03T09:25:06.590Z,48.67
2023-04-03T09:27:33.090Z,47.57
2023-04-03T09:29:59.780Z,47.83
2023-04-03T09:32:32.265Z,48.07
2023-04-03T09:35:21.830Z,47.61
2023-04-03T09:38:00.619Z,46.34
2023-04-03T09:40:27.213Z,45.87
2023-04-03T09:43:01.373Z,45.45
2023-04-03T09:45:37.125Z,46.68
2023-04-03T09:48:16.249Z,47.00
2023-04-03T09:50:56.201Z,45.92
2023-04-03T09:53:43.576Z,46.33
2023-04-03T09:56:23.728Z,44.53
2023-04-03T09:58:52.100Z,44.40
2023-04-03T10:01:32.689Z,45.06
2023-04-03T10:04:14.587Z,43.61
2023-04-03T10:06:51.685Z,42.13
2023-04-03T10:09:24.928Z,42.92
2023-04-03T10:11:58.455Z,41.25
2023-04-03T10:14:25.033Z,41.35
2023-04-03T10:17:24.739Z,41.73
2023-04-03T10:20:03.317Z,39.75
2023-04-03T10:22:45.087Z,39.97
2023-04-03T10:25:30.236Z,41.66
2023-04-03T10:28:01.764Z,41.93
2023-04-03T10:30:43.089Z,42.32
2023-04-03T10:33:32.702Z,43.16
2023-04-03T10:36:24.516Z,43.73
2023-04-03T10:39:02.785Z,44.33
2023-04-03T10:41:47.916Z,43.74
2023-04-03T10:44:28.798Z,44.36
2023-04-03T10:47:17.253Z,42.74
2023-04-03T10:50:25.095Z,42.22
2023-04-03T10:53:16.736Z,43.05
2023-04-03T10:56:02.604Z,43.12
2023-04-03T10:58:45.408Z,43.06
2023-04-03T11:01:23.357Z,44.21
2023-04-03T11:03:56.739Z,43.90
2023-04-03T11:06:25.787Z,44.31
2023-04-03T11:08:58.060Z,44.09
2023-04-03T11:11:31.732Z,44.46
2023-04-03T11:14:17.281Z,44.62
2023-04-03T11:16:54.406Z,43.71
2023-04-03T11:19:32.029Z,43.95
2023-04-03T11:22:12.410Z,42.98
2023-04-03T11:24:42.557Z,43.69
2023-04-03T11:27:20.234Z,44.10
2023-04-03T11:29:48.140Z,44.71
2023-04-03T11:32:39.993Z,44.59
2023-04-03T11:35:09.722Z,45.53
2023-04-03T11:37:41.043Z,44.46
2023-04-03T11:40:16.967Z,46.64
2023-04-03T11:42:47.681Z,45.89
2023-04-03T11:45:24.456Z,46.41
2023-04-03T11:48:04.804Z,44.80
2023-04-03T11:50:47.508Z,44.62
2023-04-03T11:53:26.800Z,43.30
2023-04-03T11:55:56.297Z,42.32
2023-04-03T11:58:23.935Z,41.47
2023-04-03T12:00:56.745Z,42.85
2023-04-03T12:03:30.538Z,42.54
2023-04-03T12:06:15.856Z,43.49
2023-04-03T12:08:46.048Z,43.97
2023-04-03T12:11:12.780Z,43.01
2023-04-03T12:13:53.473Z,41.16
2023-04-03T12:16:23.506Z,38.75
2023-04-03T12:18:50.061Z,38.59
2023-04-03T12:21:22.455Z,39.96
2023-04-03T12:24:08.548Z,40.46
2023-04-03T12:26:58.954Z,39.51
2023-04-03T12:29:41.382Z,38.61
2023-04-03T12:32:42.950Z,39.74
2023-04-03T12:35:29.545Z,40.49
2023-04-03T12:38:19.399Z,39.63
2023-04-03T12:41:04.069Z,40.01
2023-04-03T12:43:48.722Z,39.57
2023-04-03T12:46:21.955Z,39.56
2023-04-03T12:48:57.112Z,38.45
2023-04-03T12:51:35.188Z,38.21
2023-04-03T12:54:33.539Z,39.10
2023-04-03T12:57:21.555Z,38.83
2023-04-03T12:59:49.637Z,41.08
2023-04-03T13:02:27.964Z,41.16
2023-04-03T13:05:00.751Z,41.10
2023-04-03T13:07:38.199Z,40.49
2023-04-03T13:10:08.399Z,39.60
2023-04-03T13:12:59.211Z,37.95
2023-04-03T13:15:40.546Z,37.22
2023-04-03T13:18:26.519Z,37.12
2023-04-03T13:20:56.842Z,40.37
2023-04-03T13:23:24.213Z,41.39
2023-04-03T13:25:51.750Z,40.17
2023-04-03T13:28:24.934Z,40.31
2023-04-03T13:31:07.938Z,39.52
2023-04-03T13:33:38.872Z,37.49
2023-04-03T13:36:17.287Z,35.27
2023-04-03T13:38:43.768Z,35.98
2023-04-03T13:41:27.149Z,34.71
2023-04-03T13:43:57.998Z,35.34
2023-04-03T13:46:33.356Z,35.95
2023-04-03T13:49:29.777Z,36.49
2023-04-03T13:52:06.443Z,38.17
2023-04-03T13:54:39.989Z,35.99
2023-04-03T13:57:15.965Z,35.27
2023-04-03T13:59:44.085Z,34.38
2023-04-03T14:02:23.327Z,34.39
2023-04-03T14:04:58.856Z,33.69
2023-04-03T14:07:26.724Z,31.55
2023-04-03T14:09:53.398Z,31.80
2023-04-03T14:12:38.238Z,30.70
2023-04-03T14:15:13.021Z,29.93
2023-04-03T14:17:39.595Z,30.22
2023-04-03T14:20:07.522Z,30.83
2023-04-03T14:22:35.721Z,31.32
2023-04-03T14:25:02.596Z,31.27
2023-04-03T14:27:41.089Z,30.59
2023-04-03T14:30:14.585Z,29.58
2023-04-03T14:32:41.287Z,31.31
2023-04-03T14:35:08.343Z,31.66
2023-04-03T14:37:36.355Z,30.20
2023-04-03T14:40:05.663Z,29.04
2023-04-03T14:42:35.928Z,29.42
2023-04-03T14:45:05.276Z,28.52
2023-04-03T14:47:32.556Z,28.86
2023-04-03T14:50:01.826Z,29.86
2023-04-03T14:52:32.769Z,28.82
2023-04-03T14:54:59.799Z,28.29
2023-04-03T14:57:28.835Z,27.97
2023-04-03T14:59:55.744Z,27.66
2023-04-03T15:02:25.415Z,27.68
2023-04-03T15:04:53.440Z,26.73
2023-04-03T15:07:20.664Z,26.93
2023-04-03T15:09:47.188Z,26.63
2023-04-03T15:14:51.878Z,27.00
2023-04-03T15:17:24.874Z,26.84
2023-04-03T15:19:51.335Z,26.42
2023-04-03T15:22:20.779Z,27.65
2023-04-03T15:24:47.317Z,28.00
2023-04-03T15:27:14.932Z,27.79
2023-04-03T15:29:42.806Z,26.68
2023-04-03T15:32:10.395Z,25.34
2023-04-03T15:34:40.468Z,25.89
2023-04-03T15:37:07.114Z,27.17
2023-04-03T15:39:33.556Z,26.21
2023-04-03T15:42:09.143Z,25.87
2023-04-03T15:44:36.057Z,26.89
2023-04-03T15:47:03.564Z,27.99
2023-04-03T15:49:31.874Z,28.51
2023-04-03T15:51:58.385Z,29.94
2023-04-03T15:54:26.173Z,29.57
2023-04-03T15:56:54.546Z,30.41
2023-04-03T15:59:21.240Z,30.93
2023-04-03T16:01:48.516Z,30.37
2023-04-03T16:04:17.005Z,28.28
2023-04-03T16:06:44.320Z,28.50
2023-04-03T16:09:11.499Z,28.74
2023-04-03T16:11:40.315Z,29.28
2023-04-03T16:14:08.439Z,28.42
2023-04-03T16:16:36.005Z,27.57
2023-04-03T16:19:02.595Z,27.53
2023-04-03T16:21:29.745Z,28.35
2023-04-03T16:23:59.259Z,28.38
2023-04-03T16:26:26.408Z,27.51
2023-04-03T16:28:53.954Z,27.36
2023-04-03T16:31:21.502Z,27.12
2023-04-03T16:33:48.114Z,27.50
2023-04-03T16:36:14.631Z,27.04
2023-04-03T16:38:41.140Z,27.68
2023-04-03T16:41:07.626Z,27.22
2023-04-03T16:43:34.338Z,26.64
2023-04-03T16:46:03.014Z,27.48
2023-04-03T16:48:30.936Z,27.34
2023-04-03T16:50:57.359Z,26.87
2023-04-03T16:53:25.795Z,27.06
2023-04-03T16:55:52.522Z,29.10
2023-04-03T16:58:19.857Z,30.12
2023-04-03T17:00:48.254Z,31.65
2023-04-03T17:03:14.910Z,31.51
2023-04-03T17:05:41.585Z,31.73
2023-04-03T17:08:08.420Z,31.95
2023-04-03T17:10:36.280Z,33.33
2023-04-03T17:13:02.941Z,34.32
2023-04-03T17:15:29.493Z,34.07
2023-04-03T17:17:56.088Z,35.11
2023-04-03T17:20:23.194Z,34.68
2023-04-03T17:22:49.751Z,35.40
2023-04-03T17:25:16.602Z,35.90
2023-04-03T17:27:43.349Z,35.69
2023-04-03T17:30:10.215Z,35.43
2023-04-03T17:32:38.357Z,35.94
2023-04-03T17:35:05.327Z,36.71
2023-04-03T17:37:31.971Z,36.72
2023-04-03T17:39:58.523Z,37.26
2023-04-03T17:42:25.016Z,37.51
2023-04-03T17:44:51.567Z,38.33
2023-04-03T17:47:17.983Z,37.74
2023-04-03T17:49:44.557Z,38.31
2023-04-03T17:52:11.135Z,39.33
2023-04-03T17:54:37.542Z,38.71
2023-04-03T17:57:04.582Z,38.49
2023-04-03T17:59:31.788Z,39.30
2023-04-03T18:01:58.460Z,39.50
2023-04-03T18:04:25.357Z,39.52
2023-04-03T18:06:55.464Z,39.69
2023-04-03T18:09:33.653Z,40.18
2023-04-03T18:12:06.866Z,40.37
2023-04-03T18:14:35.207Z,40.30
2023-04-03T18:17:02.042Z,40.93
2023-04-03T18:19:29.906Z,40.46
2023-04-03T18:22:00.486Z,41.02
2023-04-03T18:24:27.625Z,41.04
2023-04-03T18:27:00.068Z,41.66
2023-04-03T18:29:30.838Z,41.68
2023-04-03T18:31:58.839Z,41.36
2023-04-03T18:34:25.817Z,42.40
2023-04-03T18:36:52.495Z,42.81
2023-04-03T18:39:19.379Z,42.80
2023-04-03T18:41:46.969Z,43.02
2023-04-03T18:44:17.221Z,43.42
2023-04-03T18:46:43.997Z,43.10
2023-04-03T18:49:12.074Z,44.33
2023-04-03T18:51:39.509Z,43.99
2023-04-03T18:54:09.373Z,44.94
2023-04-03T18:56:37.008Z,44.51
2023-04-03T18:59:03.811Z,45.17
2023-04-03T19:01:30.559Z,44.16
2023-04-03T19:03:57.070Z,44.75
2023-04-03T19:06:23.772Z,46.05
2023-04-03T19:08:51.163Z,45.84
2023-04-03T19:11:18.052Z,46.69
2023-04-03T19:13:46.837Z,45.72
2023-04-03T19:16:30.785Z,45.93
2023-04-03T19:18:57.499Z,46.67
2023-04-03T19:21:23.959Z,46.78
2023-04-03T19:23:50.683Z,46.30
2023-04-03T19:26:17.722Z,46.95
2023-04-03T19:28:44.553Z,46.99
2023-04-03T19:31:14.380Z,47.03
2023-04-03T19:33:42.234Z,47.39
2023-04-03T19:36:09.214Z,47.76
2023-04-03T19:38:35.977Z,47.94
2023-04-03T19:41:07.182Z,47.52
2023-04-03T19:43:33.746Z,47.87
2023-04-03T19:46:00.521Z,47.64
2023-04-03T19:48:26.996Z,48.25
2023-04-03T19:50:53.826Z,48.25
2023-04-03T19:53:22.137Z,48.32
2023-04-03T19:55:49.231Z,49.03
2023-04-03T19:58:15.813Z,48.36
2023-04-03T20:00:42.672Z,49.08
2023-04-03T20:03:09.459Z,49.43
2023-04-03T20:05:36.061Z,49.63
2023-04-03T20:08:02.807Z,49.43
2023-04-03T20:10:29.362Z,49.13
2023-04-03T20:12:55.836Z,49.96
2023-04-03T20:15:22.881Z,49.38
2023-04-03T20:17:49.594Z,50.31
2023-04-03T20:20:16.452Z,50.76
2023-04-03T20:22:43.592Z,51.65
2023-04-03T20:25:15.271Z,51.20
2023-04-03T20:27:44.243Z,51.50
2023-04-03T20:30:13.050Z,51.08
2023-04-03T20:32:39.621Z,50.26
2023-04-03T20:35:06.924Z,50.82
2023-04-03T20:37:33.835Z,50.65
2023-04-03T20:40:00.804Z,51.23
2023-04-03T20:42:27.620Z,50.89
2023-04-03T20:44:55.235Z,51.49
2023-04-03T20:47:21.673Z,51.99
2023-04-03T20:49:48.912Z,52.12
2023-04-03T20:52:15.577Z,52.24
2023-04-03T20:54:42.059Z,51.87
2023-04-03T20:57:08.662Z,52.44
2023-04-03T20:59:35.756Z,52.33
2023-04-03T21:02:02.457Z,52.15
2023-04-03T21:04:36.568Z,52.51
2023-04-03T21:07:41.322Z,53.27
2023-04-03T21:10:46.896Z,52.89
2023-04-03T21:13:51.206Z,52.86
2023-04-03T21:16:17.655Z,53.82
2023-04-03T21:19:06.688Z,53.33
2023-04-03T21:21:36.194Z,53.82
2023-04-03T21:24:06.559Z,53.80
2023-04-03T21:26:34.082Z,54.51
2023-04-03T21:29:00.880Z,54.34
2023-04-03T21:32:12.661Z,54.81
2023-04-03T21:34:39.102Z,54.84
2023-04-03T21:37:07.864Z,55.25
2023-04-03T21:39:34.961Z,55.13
2023-04-03T21:42:01.764Z,55.46
2023-04-03T21:44:28.619Z,55.96
2023-04-03T21:46:55.766Z,55.60
2023-04-03T21:49:24.187Z,55.84
2023-04-03T21:51:52.379Z,56.08
2023-04-03T21:54:19.765Z,55.99
2023-04-03T21:56:47.997Z,57.00
2023-04-03T21:59:14.949Z,56.75
2023-04-03T22:01:41.773Z,56.90
2023-04-03T22:04:08.286Z,56.85
2023-04-03T22:06:34.734Z,57.49
2023-04-03T22:09:01.382Z,57.26
2023-04-03T22:11:28.929Z,57.33
2023-04-03T22:13:55.889Z,57.32
2023-04-03T22:16:23.545Z,57.89
2023-04-03T22:18:51.965Z,58.15
2023-04-03T22:21:18.850Z,58.24
2023-04-03T22:23:45.341Z,58.41
2023-04-03T22:26:12.659Z,57.96
2023-04-03T22:28:41.093Z,59.07
2023-04-03T22:31:08.509Z,58.37
2023-04-03T22:33:39.048Z,59.27
2023-04-03T22:36:06.158Z,58.70
2023-04-03T22:38:32.892Z,58.64
2023-04-03T22:41:04.043Z,59.44
2023-04-03T22:43:33.061Z,58.72
2023-04-03T22:46:01.163Z,59.00
2023-04-03T22:48:27.801Z,58.79
2023-04-03T22:50:55.538Z,59.47
2023-04-03T22:53:22.509Z,59.24
2023-04-03T22:55:59.359Z,59.57
2023-04-03T22:58:26.945Z,59.09
2023-04-03T23:01:07.738Z,59.33
2023-04-03T23:03:35.858Z,58.68
2023-04-03T23:06:03.591Z,58.85
2023-04-03T23:08:30.800Z,59.21
2023-04-03T23:10:58.249Z,59.16
2023-04-03T23:13:25.520Z,59.79
2023-04-03T23:16:00.211Z,59.47
2023-04-03T23:18:31.661Z,59.59
2023-04-03T23:21:03.311Z,59.38
2023-04-03T23:23:30.864Z,58.98
2023-04-03T23:25:59.378Z,59.58
2023-04-03T23:28:27.699Z,59.21
2023-04-03T23:31:02.632Z,59.33
2023-04-03T23:33:31.131Z,59.83
2023-04-03T23:35:58.618Z,60.05
2023-04-03T23:38:25.628Z,60.65
2023-04-03T23:40:52.541Z,60.17
2023-04-03T23:43:19.054Z,60.48
2023-04-03T23:45:45.573Z,60.19
2023-04-03T23:48:12.142Z,60.12
2023-04-03T23:50:38.895Z,60.30
2023-04-03T23:53:05.700Z,60.14
2023-04-03T23:55:32.222Z,60.10
2023-04-03T23:57:58.852Z,60.25
